sensor_id;sensor_type;location;lat;lon;timestamp;P1;durP1;ratioP1;P2;durP2;ratioP2
70071;SDS011;57434;42.794;23.302;2023-02-19T00:00:39;10.10;;;4.32;;
70071;SDS011;57434;42.794;23.302;2023-02-19T00:01:42;11.38;;;4.85;;
70071;SDS011;57434;42.794;23.302;2023-02-19T00:02:46;10.75;;;4.28;;
70071;SDS011;57434;42.794;23.302;2023-02-19T00:03:49;11.90;;;5.28;;
70071;SDS011;57434;42.794;23.302;2023-02-19T00:04:53;11.23;;;4.00;;
70071;SDS011;57434;42.794;23.302;2023-02-19T00:05:55;13.23;;;4.53;;
70071;SDS011;57434;42.794;23.302;2023-02-19T00:06:58;11.15;;;4.40;;
70071;SDS011;57434;42.794;23.302;2023-02-19T00:07:59;8.85;;;3.72;;
70071;SDS011;57434;42.794;23.302;2023-02-19T00:09:01;11.27;;;5.07;;
70071;SDS011;57434;42.794;23.302;2023-02-19T00:10:04;10.77;;;4.20;;
70071;SDS011;57434;42.794;23.302;2023-02-19T00:11:07;8.85;;;4.20;;
70071;SDS011;57434;42.794;23.302;2023-02-19T00:12:11;9.80;;;3.80;;
70071;SDS011;57434;42.794;23.302;2023-02-19T00:13:14;8.75;;;3.75;;
70071;SDS011;57434;42.794;23.302;2023-02-19T00:14:17;9.52;;;3.70;;
70071;SDS011;57434;42.794;23.302;2023-02-19T00:15:22;9.27;;;3.53;;
70071;SDS011;57434;42.794;23.302;2023-02-19T00:16:26;10.82;;;4.22;;
70071;SDS011;57434;42.794;23.302;2023-02-19T00:17:30;10.35;;;3.67;;
70071;SDS011;57434;42.794;23.302;2023-02-19T00:18:32;9.40;;;4.32;;
70071;SDS011;57434;42.794;23.302;2023-02-19T00:19:34;10.48;;;4.05;;
70071;SDS011;57434;42.794;23.302;2023-02-19T00:20:36;11.53;;;4.37;;
70071;SDS011;57434;42.794;23.302;2023-02-19T00:21:38;10.07;;;4.07;;
70071;SDS011;57434;42.794;23.302;2023-02-19T00:22:40;9.90;;;4.13;;
70071;SDS011;57434;42.794;23.302;2023-02-19T00:23:42;9.25;;;4.30;;
70071;SDS011;57434;42.794;23.302;2023-02-19T00:24:44;10.95;;;4.40;;
70071;SDS011;57434;42.794;23.302;2023-02-19T00:25:49;12.07;;;5.07;;
70071;SDS011;57434;42.794;23.302;2023-02-19T00:26:51;13.52;;;5.35;;
70071;SDS011;57434;42.794;23.302;2023-02-19T00:27:52;14.80;;;5.45;;
70071;SDS011;57434;42.794;23.302;2023-02-19T00:28:55;12.48;;;5.07;;
70071;SDS011;57434;42.794;23.302;2023-02-19T00:29:58;12.93;;;4.68;;
70071;SDS011;57434;42.794;23.302;2023-02-19T00:31:07;13.53;;;4.47;;
70071;SDS011;57434;42.794;23.302;2023-02-19T00:32:16;11.35;;;4.45;;
70071;SDS011;57434;42.794;23.302;2023-02-19T00:33:22;12.38;;;4.45;;
70071;SDS011;57434;42.794;23.302;2023-02-19T00:34:23;12.35;;;4.95;;
70071;SDS011;57434;42.794;23.302;2023-02-19T00:35:26;14.63;;;5.57;;
70071;SDS011;57434;42.794;23.302;2023-02-19T00:36:27;14.20;;;5.40;;
70071;SDS011;57434;42.794;23.302;2023-02-19T00:37:33;10.93;;;5.05;;
70071;SDS011;57434;42.794;23.302;2023-02-19T00:38:37;14.45;;;5.10;;
70071;SDS011;57434;42.794;23.302;2023-02-19T00:39:41;14.40;;;5.10;;
70071;SDS011;57434;42.794;23.302;2023-02-19T00:40:43;14.05;;;5.38;;
70071;SDS011;57434;42.794;23.302;2023-02-19T00:41:45;14.93;;;5.90;;
70071;SDS011;57434;42.794;23.302;2023-02-19T00:42:47;12.45;;;4.78;;
70071;SDS011;57434;42.794;23.302;2023-02-19T00:43:56;12.68;;;5.15;;
70071;SDS011;57434;42.794;23.302;2023-02-19T00:45:01;14.77;;;5.50;;
70071;SDS011;57434;42.794;23.302;2023-02-19T00:46:03;14.98;;;5.03;;
70071;SDS011;57434;42.794;23.302;2023-02-19T00:47:05;13.23;;;4.80;;
70071;SDS011;57434;42.794;23.302;2023-02-19T00:48:07;11.63;;;5.80;;
70071;SDS011;57434;42.794;23.302;2023-02-19T00:49:17;15.38;;;6.13;;
70071;SDS011;57434;42.794;23.302;2023-02-19T00:50:23;10.63;;;4.63;;
70071;SDS011;57434;42.794;23.302;2023-02-19T00:51:29;14.75;;;5.78;;
70071;SDS011;57434;42.794;23.302;2023-02-19T00:52:32;14.20;;;6.00;;
70071;SDS011;57434;42.794;23.302;2023-02-19T00:53:39;13.30;;;5.68;;
70071;SDS011;57434;42.794;23.302;2023-02-19T00:54:44;14.70;;;6.85;;
70071;SDS011;57434;42.794;23.302;2023-02-19T00:55:47;16.95;;;7.90;;
70071;SDS011;57434;42.794;23.302;2023-02-19T00:56:49;17.65;;;7.55;;
70071;SDS011;57434;42.794;23.302;2023-02-19T00:57:51;16.83;;;7.47;;
70071;SDS011;57434;42.794;23.302;2023-02-19T00:58:53;16.08;;;6.85;;
70071;SDS011;57434;42.794;23.302;2023-02-19T00:59:55;14.27;;;6.13;;
70071;SDS011;57434;42.794;23.302;2023-02-19T01:00:57;13.65;;;6.28;;
70071;SDS011;57434;42.794;23.302;2023-02-19T01:01:59;13.70;;;4.97;;
70071;SDS011;57434;42.794;23.302;2023-02-19T01:03:01;13.57;;;5.40;;
70071;SDS011;57434;42.794;23.302;2023-02-19T01:04:03;11.55;;;4.28;;
70071;SDS011;57434;42.794;23.302;2023-02-19T01:05:07;10.63;;;2.85;;
70071;SDS011;57434;42.794;23.302;2023-02-19T01:06:09;10.07;;;3.17;;
70071;SDS011;57434;42.794;23.302;2023-02-19T01:07:12;8.35;;;3.30;;
70071;SDS011;57434;42.794;23.302;2023-02-19T01:08:14;10.52;;;3.22;;
70071;SDS011;57434;42.794;23.302;2023-02-19T01:09:16;10.10;;;3.97;;
70071;SDS011;57434;42.794;23.302;2023-02-19T01:10:18;11.43;;;3.45;;
70071;SDS011;57434;42.794;23.302;2023-02-19T01:11:20;8.50;;;3.45;;
70071;SDS011;57434;42.794;23.302;2023-02-19T01:12:22;9.98;;;3.10;;
70071;SDS011;57434;42.794;23.302;2023-02-19T01:13:24;9.67;;;3.83;;
70071;SDS011;57434;42.794;23.302;2023-02-19T01:14:26;9.20;;;3.45;;
70071;SDS011;57434;42.794;23.302;2023-02-19T01:15:28;10.18;;;3.25;;
70071;SDS011;57434;42.794;23.302;2023-02-19T01:16:29;8.57;;;3.22;;
70071;SDS011;57434;42.794;23.302;2023-02-19T01:17:31;11.75;;;4.30;;
70071;SDS011;57434;42.794;23.302;2023-02-19T01:18:36;12.00;;;3.83;;
70071;SDS011;57434;42.794;23.302;2023-02-19T01:19:38;8.82;;;3.70;;
70071;SDS011;57434;42.794;23.302;2023-02-19T01:20:40;11.77;;;3.70;;
70071;SDS011;57434;42.794;23.302;2023-02-19T01:21:44;9.27;;;3.33;;
70071;SDS011;57434;42.794;23.302;2023-02-19T01:22:46;11.32;;;3.70;;
70071;SDS011;57434;42.794;23.302;2023-02-19T01:23:48;11.43;;;3.77;;
70071;SDS011;57434;42.794;23.302;2023-02-19T01:24:51;8.57;;;3.58;;
70071;SDS011;57434;42.794;23.302;2023-02-19T01:25:52;9.38;;;3.40;;
70071;SDS011;57434;42.794;23.302;2023-02-19T01:26:54;8.60;;;2.97;;
70071;SDS011;57434;42.794;23.302;2023-02-19T01:27:56;10.15;;;3.40;;
70071;SDS011;57434;42.794;23.302;2023-02-19T01:28:59;9.73;;;3.25;;
70071;SDS011;57434;42.794;23.302;2023-02-19T01:30:02;7.60;;;3.00;;
70071;SDS011;57434;42.794;23.302;2023-02-19T01:31:05;7.90;;;3.40;;
70071;SDS011;57434;42.794;23.302;2023-02-19T01:32:08;12.00;;;4.05;;
70071;SDS011;57434;42.794;23.302;2023-02-19T01:33:10;8.52;;;3.40;;
70071;SDS011;57434;42.794;23.302;2023-02-19T01:34:12;9.50;;;3.73;;
70071;SDS011;57434;42.794;23.302;2023-02-19T01:35:13;12.43;;;4.40;;
70071;SDS011;57434;42.794;23.302;2023-02-19T01:36:15;13.23;;;4.22;;
70071;SDS011;57434;42.794;23.302;2023-02-19T01:37:17;10.95;;;3.85;;
70071;SDS011;57434;42.794;23.302;2023-02-19T01:38:19;15.50;;;4.13;;
70071;SDS011;57434;42.794;23.302;2023-02-19T01:39:21;7.75;;;3.42;;
70071;SDS011;57434;42.794;23.302;2023-02-19T01:40:23;10.90;;;3.88;;
70071;SDS011;57434;42.794;23.302;2023-02-19T01:41:25;12.38;;;4.18;;
70071;SDS011;57434;42.794;23.302;2023-02-19T01:42:27;11.57;;;4.40;;
70071;SDS011;57434;42.794;23.302;2023-02-19T01:43:30;11.57;;;3.92;;
70071;SDS011;57434;42.794;23.302;2023-02-19T01:45:35;10.32;;;4.15;;
70071;SDS011;57434;42.794;23.302;2023-02-19T01:46:43;11.57;;;4.07;;
70071;SDS011;57434;42.794;23.302;2023-02-19T01:47:46;10.60;;;3.78;;
70071;SDS011;57434;42.794;23.302;2023-02-19T01:48:54;10.95;;;3.40;;
70071;SDS011;57434;42.794;23.302;2023-02-19T01:49:59;8.43;;;3.22;;
70071;SDS011;57434;42.794;23.302;2023-02-19T01:51:04;11.65;;;3.90;;
70071;SDS011;57434;42.794;23.302;2023-02-19T01:52:11;12.05;;;4.07;;
70071;SDS011;57434;42.794;23.302;2023-02-19T01:53:23;10.50;;;4.00;;
70071;SDS011;57434;42.794;23.302;2023-02-19T01:54:28;12.38;;;3.33;;
70071;SDS011;57434;42.794;23.302;2023-02-19T01:55:33;11.57;;;4.07;;
70071;SDS011;57434;42.794;23.302;2023-02-19T01:56:36;9.82;;;3.63;;
70071;SDS011;57434;42.794;23.302;2023-02-19T01:57:42;8.60;;;3.47;;
70071;SDS011;57434;42.794;23.302;2023-02-19T01:58:47;13.25;;;4.20;;
70071;SDS011;57434;42.794;23.302;2023-02-19T01:59:49;9.88;;;3.38;;
70071;SDS011;57434;42.794;23.302;2023-02-19T02:00:54;9.73;;;3.58;;
70071;SDS011;57434;42.794;23.302;2023-02-19T02:01:56;11.20;;;4.22;;
70071;SDS011;57434;42.794;23.302;2023-02-19T02:03:00;8.43;;;3.70;;
70071;SDS011;57434;42.794;23.302;2023-02-19T02:04:03;10.50;;;3.92;;
70071;SDS011;57434;42.794;23.302;2023-02-19T02:05:14;9.43;;;3.80;;
70071;SDS011;57434;42.794;23.302;2023-02-19T02:06:28;11.23;;;4.00;;
70071;SDS011;57434;42.794;23.302;2023-02-19T02:07:34;12.45;;;4.68;;
70071;SDS011;57434;42.794;23.302;2023-02-19T02:08:36;11.80;;;4.55;;
70071;SDS011;57434;42.794;23.302;2023-02-19T02:09:38;12.57;;;4.60;;
70071;SDS011;57434;42.794;23.302;2023-02-19T02:10:40;7.78;;;3.30;;
70071;SDS011;57434;42.794;23.302;2023-02-19T02:11:44;11.85;;;4.18;;
70071;SDS011;57434;42.794;23.302;2023-02-19T02:12:50;11.43;;;4.53;;
70071;SDS011;57434;42.794;23.302;2023-02-19T02:13:57;10.35;;;3.97;;
70071;SDS011;57434;42.794;23.302;2023-02-19T02:15:00;8.80;;;3.53;;
70071;SDS011;57434;42.794;23.302;2023-02-19T02:18:09;8.20;;;3.87;;
70071;SDS011;57434;42.794;23.302;2023-02-19T02:19:28;10.95;;;4.20;;
70071;SDS011;57434;42.794;23.302;2023-02-19T02:21:55;10.63;;;4.30;;
70071;SDS011;57434;42.794;23.302;2023-02-19T02:23:15;9.57;;;3.80;;
70071;SDS011;57434;42.794;23.302;2023-02-19T02:26:04;11.75;;;3.72;;
70071;SDS011;57434;42.794;23.302;2023-02-19T02:34:22;9.80;;;3.67;;
70071;SDS011;57434;42.794;23.302;2023-02-19T02:35:33;10.73;;;4.10;;
70071;SDS011;57434;42.794;23.302;2023-02-19T02:36:42;8.60;;;3.53;;
70071;SDS011;57434;42.794;23.302;2023-02-19T02:37:46;12.25;;;3.85;;
70071;SDS011;57434;42.794;23.302;2023-02-19T02:38:50;10.13;;;3.53;;
70071;SDS011;57434;42.794;23.302;2023-02-19T02:39:53;8.68;;;3.55;;
70071;SDS011;57434;42.794;23.302;2023-02-19T02:40:57;9.35;;;4.40;;
70071;SDS011;57434;42.794;23.302;2023-02-19T02:42:00;9.88;;;3.88;;
70071;SDS011;57434;42.794;23.302;2023-02-19T02:43:02;11.57;;;4.00;;
70071;SDS011;57434;42.794;23.302;2023-02-19T02:44:03;8.57;;;3.47;;
70071;SDS011;57434;42.794;23.302;2023-02-19T02:46:31;12.25;;;4.20;;
70071;SDS011;57434;42.794;23.302;2023-02-19T02:47:38;8.35;;;3.95;;
70071;SDS011;57434;42.794;23.302;2023-02-19T02:48:53;11.57;;;4.03;;
70071;SDS011;57434;42.794;23.302;2023-02-19T02:49:57;10.75;;;4.43;;
70071;SDS011;57434;42.794;23.302;2023-02-19T02:51:05;9.93;;;4.13;;
70071;SDS011;57434;42.794;23.302;2023-02-19T02:52:14;12.88;;;3.90;;
70071;SDS011;57434;42.794;23.302;2023-02-19T02:53:26;10.98;;;4.35;;
70071;SDS011;57434;42.794;23.302;2023-02-19T02:54:36;11.73;;;4.00;;
70071;SDS011;57434;42.794;23.302;2023-02-19T02:55:39;13.07;;;4.07;;
70071;SDS011;57434;42.794;23.302;2023-02-19T02:56:44;10.63;;;3.72;;
70071;SDS011;57434;42.794;23.302;2023-02-19T02:57:48;11.77;;;3.78;;
70071;SDS011;57434;42.794;23.302;2023-02-19T02:58:50;11.40;;;3.85;;
70071;SDS011;57434;42.794;23.302;2023-02-19T02:59:54;11.27;;;3.85;;
70071;SDS011;57434;42.794;23.302;2023-02-19T03:00:58;10.43;;;3.43;;
70071;SDS011;57434;42.794;23.302;2023-02-19T03:02:08;14.05;;;4.32;;
70071;SDS011;57434;42.794;23.302;2023-02-19T03:03:12;9.73;;;4.50;;
70071;SDS011;57434;42.794;23.302;2023-02-19T03:04:22;10.80;;;4.35;;
70071;SDS011;57434;42.794;23.302;2023-02-19T03:05:31;13.37;;;4.70;;
70071;SDS011;57434;42.794;23.302;2023-02-19T03:06:33;12.15;;;4.45;;
70071;SDS011;57434;42.794;23.302;2023-02-19T03:09:04;11.32;;;4.40;;
70071;SDS011;57434;42.794;23.302;2023-02-19T03:10:14;10.52;;;3.60;;
70071;SDS011;57434;42.794;23.302;2023-02-19T03:11:20;8.85;;;3.50;;
70071;SDS011;57434;42.794;23.302;2023-02-19T03:12:22;10.02;;;4.18;;
70071;SDS011;57434;42.794;23.302;2023-02-19T03:13:33;12.63;;;4.43;;
70071;SDS011;57434;42.794;23.302;2023-02-19T03:14:46;9.77;;;3.83;;
70071;SDS011;57434;42.794;23.302;2023-02-19T03:15:55;9.00;;;3.22;;
70071;SDS011;57434;42.794;23.302;2023-02-19T03:17:21;8.23;;;3.63;;
70071;SDS011;57434;42.794;23.302;2023-02-19T03:18:28;11.10;;;3.65;;
70071;SDS011;57434;42.794;23.302;2023-02-19T03:19:34;8.77;;;3.47;;
70071;SDS011;57434;42.794;23.302;2023-02-19T03:20:42;15.20;;;4.00;;
70071;SDS011;57434;42.794;23.302;2023-02-19T03:21:59;10.68;;;3.83;;
70071;SDS011;57434;42.794;23.302;2023-02-19T03:23:19;14.70;;;4.10;;
70071;SDS011;57434;42.794;23.302;2023-02-19T03:24:26;12.75;;;5.20;;
70071;SDS011;57434;42.794;23.302;2023-02-19T03:25:36;11.07;;;4.28;;
70071;SDS011;57434;42.794;23.302;2023-02-19T03:26:40;11.25;;;4.32;;
70071;SDS011;57434;42.794;23.302;2023-02-19T03:27:44;10.45;;;4.53;;
70071;SDS011;57434;42.794;23.302;2023-02-19T03:28:49;12.90;;;4.40;;
70071;SDS011;57434;42.794;23.302;2023-02-19T03:29:53;11.07;;;3.97;;
70071;SDS011;57434;42.794;23.302;2023-02-19T03:30:59;10.55;;;3.90;;
70071;SDS011;57434;42.794;23.302;2023-02-19T03:32:03;14.25;;;4.10;;
70071;SDS011;57434;42.794;23.302;2023-02-19T03:33:21;11.45;;;3.83;;
70071;SDS011;57434;42.794;23.302;2023-02-19T03:35:56;10.95;;;4.30;;
70071;SDS011;57434;42.794;23.302;2023-02-19T03:37:05;11.35;;;4.00;;
70071;SDS011;57434;42.794;23.302;2023-02-19T03:38:16;12.45;;;3.83;;
70071;SDS011;57434;42.794;23.302;2023-02-19T03:39:25;12.00;;;4.22;;
70071;SDS011;57434;42.794;23.302;2023-02-19T03:40:28;12.40;;;4.40;;
70071;SDS011;57434;42.794;23.302;2023-02-19T03:45:22;10.32;;;3.95;;
70071;SDS011;57434;42.794;23.302;2023-02-19T03:49:28;11.07;;;4.75;;
70071;SDS011;57434;42.794;23.302;2023-02-19T03:54:34;10.73;;;4.72;;
70071;SDS011;57434;42.794;23.302;2023-02-19T03:55:44;14.30;;;5.50;;
70071;SDS011;57434;42.794;23.302;2023-02-19T03:56:59;15.13;;;4.88;;
70071;SDS011;57434;42.794;23.302;2023-02-19T03:58:04;11.43;;;4.65;;
70071;SDS011;57434;42.794;23.302;2023-02-19T03:59:10;11.23;;;4.43;;
70071;SDS011;57434;42.794;23.302;2023-02-19T04:00:20;11.95;;;5.00;;
70071;SDS011;57434;42.794;23.302;2023-02-19T04:01:31;11.55;;;4.45;;
70071;SDS011;57434;42.794;23.302;2023-02-19T04:05:03;11.33;;;5.10;;
70071;SDS011;57434;42.794;23.302;2023-02-19T04:06:11;10.35;;;4.55;;
70071;SDS011;57434;42.794;23.302;2023-02-19T04:07:17;10.65;;;4.50;;
70071;SDS011;57434;42.794;23.302;2023-02-19T04:08:19;10.45;;;4.70;;
70071;SDS011;57434;42.794;23.302;2023-02-19T04:09:26;16.80;;;6.35;;
70071;SDS011;57434;42.794;23.302;2023-02-19T04:10:35;11.48;;;4.20;;
70071;SDS011;57434;42.794;23.302;2023-02-19T04:11:38;11.90;;;4.20;;
70071;SDS011;57434;42.794;23.302;2023-02-19T04:12:40;10.73;;;3.92;;
70071;SDS011;57434;42.794;23.302;2023-02-19T04:14:06;10.00;;;4.25;;
70071;SDS011;57434;42.794;23.302;2023-02-19T04:15:14;11.30;;;3.85;;
70071;SDS011;57434;42.794;23.302;2023-02-19T04:16:23;16.10;;;4.40;;
70071;SDS011;57434;42.794;23.302;2023-02-19T04:17:28;13.02;;;5.57;;
70071;SDS011;57434;42.794;23.302;2023-02-19T04:18:37;8.40;;;3.50;;
70071;SDS011;57434;42.794;23.302;2023-02-19T04:19:41;11.45;;;4.30;;
70071;SDS011;57434;42.794;23.302;2023-02-19T04:20:44;10.73;;;3.67;;
70071;SDS011;57434;42.794;23.302;2023-02-19T04:21:48;12.70;;;4.55;;
70071;SDS011;57434;42.794;23.302;2023-02-19T04:22:52;11.35;;;3.83;;
70071;SDS011;57434;42.794;23.302;2023-02-19T04:23:54;10.13;;;5.35;;
70071;SDS011;57434;42.794;23.302;2023-02-19T04:25:01;12.13;;;5.43;;
70071;SDS011;57434;42.794;23.302;2023-02-19T04:26:03;13.52;;;4.40;;
70071;SDS011;57434;42.794;23.302;2023-02-19T04:27:07;13.53;;;5.07;;
70071;SDS011;57434;42.794;23.302;2023-02-19T04:28:11;14.63;;;5.90;;
70071;SDS011;57434;42.794;23.302;2023-02-19T04:29:14;12.35;;;4.55;;
70071;SDS011;57434;42.794;23.302;2023-02-19T04:30:16;15.48;;;5.45;;
70071;SDS011;57434;42.794;23.302;2023-02-19T04:31:18;13.93;;;6.47;;
70071;SDS011;57434;42.794;23.302;2023-02-19T04:32:20;12.38;;;4.82;;
70071;SDS011;57434;42.794;23.302;2023-02-19T04:33:22;14.77;;;6.15;;
70071;SDS011;57434;42.794;23.302;2023-02-19T04:34:24;9.88;;;5.35;;
70071;SDS011;57434;42.794;23.302;2023-02-19T04:35:26;13.45;;;5.97;;
70071;SDS011;57434;42.794;23.302;2023-02-19T04:36:28;12.05;;;5.25;;
70071;SDS011;57434;42.794;23.302;2023-02-19T04:37:31;15.47;;;6.23;;
70071;SDS011;57434;42.794;23.302;2023-02-19T04:38:33;12.35;;;5.10;;
70071;SDS011;57434;42.794;23.302;2023-02-19T04:39:34;12.30;;;5.97;;
70071;SDS011;57434;42.794;23.302;2023-02-19T04:40:36;14.35;;;6.00;;
70071;SDS011;57434;42.794;23.302;2023-02-19T04:41:38;13.63;;;6.22;;
70071;SDS011;57434;42.794;23.302;2023-02-19T04:42:39;14.77;;;5.68;;
70071;SDS011;57434;42.794;23.302;2023-02-19T04:43:41;12.50;;;5.47;;
70071;SDS011;57434;42.794;23.302;2023-02-19T04:44:43;10.63;;;4.43;;
70071;SDS011;57434;42.794;23.302;2023-02-19T04:45:45;11.20;;;5.07;;
70071;SDS011;57434;42.794;23.302;2023-02-19T04:46:47;13.43;;;5.07;;
70071;SDS011;57434;42.794;23.302;2023-02-19T04:47:48;11.33;;;4.50;;
70071;SDS011;57434;42.794;23.302;2023-02-19T04:48:50;12.65;;;4.38;;
70071;SDS011;57434;42.794;23.302;2023-02-19T04:49:52;11.75;;;4.70;;
70071;SDS011;57434;42.794;23.302;2023-02-19T04:50:54;9.45;;;4.93;;
70071;SDS011;57434;42.794;23.302;2023-02-19T04:51:56;12.43;;;6.00;;
70071;SDS011;57434;42.794;23.302;2023-02-19T04:52:57;12.23;;;5.05;;
70071;SDS011;57434;42.794;23.302;2023-02-19T04:53:59;11.38;;;5.43;;
70071;SDS011;57434;42.794;23.302;2023-02-19T04:55:01;10.70;;;5.18;;
70071;SDS011;57434;42.794;23.302;2023-02-19T04:56:06;13.13;;;5.35;;
70071;SDS011;57434;42.794;23.302;2023-02-19T04:57:10;11.13;;;4.45;;
70071;SDS011;57434;42.794;23.302;2023-02-19T04:58:12;12.30;;;4.80;;
70071;SDS011;57434;42.794;23.302;2023-02-19T04:59:14;12.68;;;4.75;;
70071;SDS011;57434;42.794;23.302;2023-02-19T05:00:16;11.73;;;4.78;;
70071;SDS011;57434;42.794;23.302;2023-02-19T05:01:17;11.55;;;4.32;;
70071;SDS011;57434;42.794;23.302;2023-02-19T05:02:19;11.18;;;5.05;;
70071;SDS011;57434;42.794;23.302;2023-02-19T05:03:21;13.13;;;4.72;;
70071;SDS011;57434;42.794;23.302;2023-02-19T05:04:23;11.35;;;4.45;;
70071;SDS011;57434;42.794;23.302;2023-02-19T05:05:25;11.93;;;5.28;;
70071;SDS011;57434;42.794;23.302;2023-02-19T05:06:27;9.95;;;4.63;;
70071;SDS011;57434;42.794;23.302;2023-02-19T05:07:29;11.18;;;4.28;;
70071;SDS011;57434;42.794;23.302;2023-02-19T05:08:31;9.47;;;3.90;;
70071;SDS011;57434;42.794;23.302;2023-02-19T05:09:33;10.40;;;4.63;;
70071;SDS011;57434;42.794;23.302;2023-02-19T05:10:35;12.35;;;4.35;;
70071;SDS011;57434;42.794;23.302;2023-02-19T05:11:36;10.13;;;4.45;;
70071;SDS011;57434;42.794;23.302;2023-02-19T05:12:38;12.10;;;5.03;;
70071;SDS011;57434;42.794;23.302;2023-02-19T05:13:40;9.57;;;3.90;;
70071;SDS011;57434;42.794;23.302;2023-02-19T05:14:42;13.13;;;4.80;;
70071;SDS011;57434;42.794;23.302;2023-02-19T05:15:52;10.70;;;4.57;;
70071;SDS011;57434;42.794;23.302;2023-02-19T05:17:14;9.93;;;3.60;;
70071;SDS011;57434;42.794;23.302;2023-02-19T05:18:16;8.98;;;3.45;;
70071;SDS011;57434;42.794;23.302;2023-02-19T05:19:18;11.13;;;4.30;;
70071;SDS011;57434;42.794;23.302;2023-02-19T05:20:19;10.27;;;3.70;;
70071;SDS011;57434;42.794;23.302;2023-02-19T05:21:21;7.90;;;3.78;;
70071;SDS011;57434;42.794;23.302;2023-02-19T05:22:23;11.00;;;3.33;;
70071;SDS011;57434;42.794;23.302;2023-02-19T05:23:25;10.65;;;3.95;;
70071;SDS011;57434;42.794;23.302;2023-02-19T05:24:28;8.52;;;3.60;;
70071;SDS011;57434;42.794;23.302;2023-02-19T05:25:30;8.23;;;3.90;;
70071;SDS011;57434;42.794;23.302;2023-02-19T05:26:31;11.05;;;3.83;;
70071;SDS011;57434;42.794;23.302;2023-02-19T05:27:33;9.73;;;3.97;;
70071;SDS011;57434;42.794;23.302;2023-02-19T05:28:35;9.38;;;3.60;;
70071;SDS011;57434;42.794;23.302;2023-02-19T05:29:37;9.93;;;4.13;;
70071;SDS011;57434;42.794;23.302;2023-02-19T05:30:39;9.20;;;3.63;;
70071;SDS011;57434;42.794;23.302;2023-02-19T05:31:40;9.05;;;3.55;;
70071;SDS011;57434;42.794;23.302;2023-02-19T05:32:42;9.70;;;3.65;;
70071;SDS011;57434;42.794;23.302;2023-02-19T05:33:44;9.50;;;4.00;;
70071;SDS011;57434;42.794;23.302;2023-02-19T05:34:46;10.73;;;4.35;;
70071;SDS011;57434;42.794;23.302;2023-02-19T05:35:48;12.45;;;4.47;;
70071;SDS011;57434;42.794;23.302;2023-02-19T05:36:52;9.85;;;4.53;;
70071;SDS011;57434;42.794;23.302;2023-02-19T05:37:54;10.23;;;4.43;;
70071;SDS011;57434;42.794;23.302;2023-02-19T05:38:56;9.90;;;3.85;;
70071;SDS011;57434;42.794;23.302;2023-02-19T05:39:58;11.00;;;4.47;;
70071;SDS011;57434;42.794;23.302;2023-02-19T05:41:10;10.45;;;4.25;;
70071;SDS011;57434;42.794;23.302;2023-02-19T05:42:13;11.40;;;4.72;;
70071;SDS011;57434;42.794;23.302;2023-02-19T05:43:16;10.52;;;4.63;;
70071;SDS011;57434;42.794;23.302;2023-02-19T05:44:17;11.48;;;4.68;;
70071;SDS011;57434;42.794;23.302;2023-02-19T05:45:19;18.02;;;7.53;;
70071;SDS011;57434;42.794;23.302;2023-02-19T05:46:23;15.90;;;6.25;;
70071;SDS011;57434;42.794;23.302;2023-02-19T05:47:26;11.32;;;5.35;;
70071;SDS011;57434;42.794;23.302;2023-02-19T05:48:28;12.43;;;4.90;;
70071;SDS011;57434;42.794;23.302;2023-02-19T05:49:30;9.75;;;4.20;;
70071;SDS011;57434;42.794;23.302;2023-02-19T05:50:33;10.07;;;4.87;;
70071;SDS011;57434;42.794;23.302;2023-02-19T05:51:39;13.40;;;4.70;;
70071;SDS011;57434;42.794;23.302;2023-02-19T05:52:41;10.90;;;5.07;;
70071;SDS011;57434;42.794;23.302;2023-02-19T05:53:43;12.05;;;4.95;;
70071;SDS011;57434;42.794;23.302;2023-02-19T05:54:45;9.82;;;4.78;;
70071;SDS011;57434;42.794;23.302;2023-02-19T05:55:47;10.85;;;5.07;;
70071;SDS011;57434;42.794;23.302;2023-02-19T05:56:49;9.38;;;4.68;;
70071;SDS011;57434;42.794;23.302;2023-02-19T05:57:51;11.00;;;4.22;;
70071;SDS011;57434;42.794;23.302;2023-02-19T05:58:53;10.52;;;5.18;;
70071;SDS011;57434;42.794;23.302;2023-02-19T05:59:56;11.38;;;5.25;;
70071;SDS011;57434;42.794;23.302;2023-02-19T06:00:57;10.87;;;4.47;;
70071;SDS011;57434;42.794;23.302;2023-02-19T06:01:59;11.50;;;4.60;;
70071;SDS011;57434;42.794;23.302;2023-02-19T06:03:01;9.70;;;4.95;;
70071;SDS011;57434;42.794;23.302;2023-02-19T06:04:03;13.02;;;5.78;;
70071;SDS011;57434;42.794;23.302;2023-02-19T06:05:05;13.85;;;5.13;;
70071;SDS011;57434;42.794;23.302;2023-02-19T06:06:08;12.85;;;5.55;;
70071;SDS011;57434;42.794;23.302;2023-02-19T06:07:13;14.00;;;5.97;;
70071;SDS011;57434;42.794;23.302;2023-02-19T06:08:15;10.95;;;5.40;;
70071;SDS011;57434;42.794;23.302;2023-02-19T06:09:17;16.05;;;5.70;;
70071;SDS011;57434;42.794;23.302;2023-02-19T06:10:18;14.30;;;5.97;;
70071;SDS011;57434;42.794;23.302;2023-02-19T06:11:20;13.03;;;4.80;;
70071;SDS011;57434;42.794;23.302;2023-02-19T06:12:23;12.65;;;5.00;;
70071;SDS011;57434;42.794;23.302;2023-02-19T06:13:25;13.88;;;5.78;;
70071;SDS011;57434;42.794;23.302;2023-02-19T06:14:27;13.88;;;6.35;;
70071;SDS011;57434;42.794;23.302;2023-02-19T06:15:29;17.02;;;7.32;;
70071;SDS011;57434;42.794;23.302;2023-02-19T06:16:31;15.65;;;6.95;;
70071;SDS011;57434;42.794;23.302;2023-02-19T06:17:33;14.95;;;6.65;;
70071;SDS011;57434;42.794;23.302;2023-02-19T06:18:35;13.23;;;6.57;;
70071;SDS011;57434;42.794;23.302;2023-02-19T06:19:37;13.75;;;6.22;;
70071;SDS011;57434;42.794;23.302;2023-02-19T06:20:39;16.05;;;8.27;;
70071;SDS011;57434;42.794;23.302;2023-02-19T06:21:41;16.70;;;7.00;;
70071;SDS011;57434;42.794;23.302;2023-02-19T06:22:42;14.55;;;6.53;;
70071;SDS011;57434;42.794;23.302;2023-02-19T06:23:44;13.23;;;5.97;;
70071;SDS011;57434;42.794;23.302;2023-02-19T06:24:47;13.48;;;6.60;;
70071;SDS011;57434;42.794;23.302;2023-02-19T06:25:49;14.77;;;6.50;;
70071;SDS011;57434;42.794;23.302;2023-02-19T06:26:51;12.75;;;6.75;;
70071;SDS011;57434;42.794;23.302;2023-02-19T06:27:52;13.57;;;6.60;;
70071;SDS011;57434;42.794;23.302;2023-02-19T06:28:54;15.55;;;8.52;;
70071;SDS011;57434;42.794;23.302;2023-02-19T06:29:56;13.48;;;7.25;;
70071;SDS011;57434;42.794;23.302;2023-02-19T06:30:58;12.40;;;5.70;;
70071;SDS011;57434;42.794;23.302;2023-02-19T06:32:00;12.93;;;6.93;;
70071;SDS011;57434;42.794;23.302;2023-02-19T06:33:02;15.70;;;7.75;;
70071;SDS011;57434;42.794;23.302;2023-02-19T06:34:04;21.05;;;9.45;;
70071;SDS011;57434;42.794;23.302;2023-02-19T06:35:06;21.42;;;8.82;;
70071;SDS011;57434;42.794;23.302;2023-02-19T06:36:12;21.42;;;8.98;;
70071;SDS011;57434;42.794;23.302;2023-02-19T06:37:16;17.27;;;9.15;;
70071;SDS011;57434;42.794;23.302;2023-02-19T06:38:19;15.40;;;7.20;;
70071;SDS011;57434;42.794;23.302;2023-02-19T06:39:22;15.00;;;7.85;;
70071;SDS011;57434;42.794;23.302;2023-02-19T06:40:23;13.23;;;6.68;;
70071;SDS011;57434;42.794;23.302;2023-02-19T06:41:25;12.57;;;5.70;;
70071;SDS011;57434;42.794;23.302;2023-02-19T06:42:30;12.50;;;5.53;;
70071;SDS011;57434;42.794;23.302;2023-02-19T06:43:32;13.05;;;5.40;;
70071;SDS011;57434;42.794;23.302;2023-02-19T06:44:35;12.25;;;6.15;;
70071;SDS011;57434;42.794;23.302;2023-02-19T06:45:37;15.02;;;6.18;;
70071;SDS011;57434;42.794;23.302;2023-02-19T06:46:39;16.98;;;6.65;;